Aérodrome :
LOGIN :

S'inscrire | Disclaimer

   EN    FR    IT 

 










Légende :    VFR   VFR Marginal   IFR   IFR Intensif   IFR Très Intensif
Visi : 
Plafond : 
>= 8 km
>= 3000ft
5 à 8 km
1000 à 3000 ft
1500m à 5 km
500 à 1000 ft
800 à 1500m
200 à 500 ft
< 800m
< 200 ft
Symboles :   Orages  Brouillard  Fortes neiges  Fortes précipitations  Vent > 20 kt
SIGMETs :   Divers  Orages  Givrage  Turbulence  Onde Orograph.  Cendres Volcan.







- Altitude de l'aérodrome : 433 ft
- Code IATA : CCF
- Voir les cartes d'approche


LFMK - Carcassonne

DERNIER METAR :
  • 181900Z AUTO 10008KT 070V160 9999 FEW025 BKN240 10/08 Q1018

METARs EXPIRÉS :
  • 181830Z AUTO 11008KT 080V140 CAVOK 10/08 Q1018
  • 181800Z AUTO 10008KT 060V130 9999 FEW019 10/08 Q1017 TEMPO 09015G25KT BKN010
  • 181730Z AUTO 10009KT 070V130 CAVOK 10/07 Q1017 TEMPO 09015G25KT BKN010
  • 181700Z AUTO 10010KT 070V130 CAVOK 10/07 Q1018 TEMPO 09015G25KT BKN010
  • 181630Z AUTO 10008KT 070V140 9999 FEW024 10/07 Q1018 TEMPO 09015G25KT BKN010

TAF TAF LFMK
Valide du 18 à 15h jusqu'au 19 à 15h UTC


181400Z 1815/1915 09012KT 9999 BKN020
TEMPO 1815/1817 09020G30KT
TEMPO 1817/1821 09015G25KT BKN010
BECMG 1901/1904 27010KT BKN015
BECMG 1907/1909 FEW020 BKN050
BECMG 1910/1912 FEW050
Pas de NOTAMs connus pour ce terrain.
4 SIGMETs publiés pour la FIR Bordeaux (LFBB) :
 
Turbulence forte
LFBB SIGMET 9 VALID 181900/182200 LFPW
LFBB BORDEAUX FIR/UIR SEV TURB FCST WI N4230 E00030 - N4300 W00145 - N4330 W00145 - N4300 E00045 - N4230 E00030 SFC/FL080 STNR WKN=
Givrage fort
LFBB SIGMET 8 VALID 181715/181900 LFPW
LFBB BORDEAUX FIR/UIR SEV ICE OBS WI N4245 W00045 - N4300 W00130 - N4615 W00045 - N4615 E00015 - N4245 W00045 FL140/240 MOV NE 30KT NC=
Turbulence forte
LFBB SIGMET 7 VALID 181600/182000 LFPW
LFBB BORDEAUX FIR/UIR SEV TURB FCST WI N4500 E00245 - N4300 E00230 - N4330 E00115 - N4345 E00130 - N4345 E00200 - N4500 E00245 SFC/FL060 STNR WKN=
Turbulence forte
LFBB SIGMET 6 VALID 181600/181900 LFPW
LFBB BORDEAUX FIR/UIR SEV TURB FCST WI N4230 E00030 - N4300 W00145 - N4330 W00145 - N4300 E00045 - N4230 E00030 SFC/FL120 STNR WKN=



MET'MAP, la Météo Aéronautique d'un coup d'oeil ! - Copyright ORBIFLY Décembre 2007 - Disclaimer

ORBIFLY MET'MAP TEAM :

Programmation & Développement : Alexandra Zaïnal
Conception & Développement : Baudouin d'Aumeries
Co-Programmation & Développement : Marc-Olivier Méhu
Soutien technique & logistique : Manuel Goepfert

Contact : metmap@orbifly.com




SOURCES & CREDITS :

   NOAA